createdAt,value
2019-03-08T00:02:13.303Z,0.50
2019-03-08T00:04:39.713Z,0.50
2019-03-08T00:07:06.227Z,0.47
2019-03-08T00:09:33.054Z,0.40
2019-03-08T00:11:59.556Z,0.43
2019-03-08T00:14:26.547Z,0.40
2019-03-08T00:16:53.307Z,0.50
2019-03-08T00:19:19.698Z,0.40
2019-03-08T00:21:46.157Z,0.60
2019-03-08T00:24:12.662Z,0.50
2019-03-08T00:26:39.131Z,0.50
2019-03-08T00:29:05.521Z,0.40
2019-03-08T00:31:32.097Z,0.50
2019-03-08T00:33:58.746Z,0.80
2019-03-08T00:36:25.143Z,0.47
2019-03-08T00:38:51.535Z,0.40
2019-03-08T00:41:17.906Z,0.60
2019-03-08T00:43:44.302Z,1.30
2019-03-08T00:46:10.682Z,0.47
2019-03-08T00:48:37.445Z,0.57
2019-03-08T00:51:03.936Z,0.53
2019-03-08T00:53:30.338Z,0.70
2019-03-08T00:55:56.820Z,0.60
2019-03-08T00:58:23.322Z,0.50
2019-03-08T01:00:50.095Z,0.77
2019-03-08T01:03:16.595Z,0.40
2019-03-08T01:05:43.095Z,0.60
2019-03-08T01:08:09.785Z,0.43
2019-03-08T01:10:36.267Z,0.80
2019-03-08T01:13:03.195Z,0.77
2019-03-08T01:15:29.665Z,0.40
2019-03-08T01:17:56.071Z,0.80
2019-03-08T01:20:22.545Z,0.50
2019-03-08T01:22:50.030Z,0.40
2019-03-08T01:25:17.030Z,0.60
2019-03-08T01:28:07.091Z,0.60
2019-03-08T01:30:34.867Z,0.40
2019-03-08T01:33:01.611Z,0.60
2019-03-08T01:35:28.182Z,0.80
2019-03-08T01:37:54.697Z,0.80
2019-03-08T01:40:21.604Z,0.50
2019-03-08T01:42:48.186Z,0.80
2019-03-08T01:45:15.888Z,1.17
2019-03-08T01:47:42.258Z,0.50
2019-03-08T01:50:09.751Z,0.50
2019-03-08T01:52:36.231Z,0.80
2019-03-08T01:55:04.825Z,0.63
2019-03-08T01:57:31.310Z,0.70
2019-03-08T01:59:58.710Z,0.80
2019-03-08T02:02:25.207Z,0.70
2019-03-08T02:04:51.886Z,0.50
2019-03-08T02:07:18.411Z,0.50
2019-03-08T02:09:44.882Z,0.60
2019-03-08T02:12:11.391Z,0.60
2019-03-08T02:14:37.967Z,0.60
2019-03-08T02:17:04.786Z,0.77
2019-03-08T02:19:31.081Z,0.70
2019-03-08T02:21:57.442Z,0.70
2019-03-08T02:24:23.808Z,0.50
2019-03-08T02:26:50.290Z,0.63
2019-03-08T02:29:17.859Z,0.57
2019-03-08T02:31:44.329Z,0.60
2019-03-08T02:34:10.907Z,0.70
2019-03-08T02:36:37.295Z,0.40
2019-03-08T02:39:05.438Z,0.73
2019-03-08T02:41:33.223Z,0.80
2019-03-08T02:43:59.618Z,0.50
2019-03-08T02:46:25.990Z,0.60
2019-03-08T02:48:52.404Z,0.50
2019-03-08T02:51:18.780Z,0.43
2019-03-08T02:53:45.472Z,0.40
2019-03-08T02:56:11.938Z,0.80
2019-03-08T02:58:38.439Z,0.53
2019-03-08T03:01:06.022Z,0.60
2019-03-08T03:03:32.730Z,0.60
2019-03-08T03:05:59.403Z,0.80
2019-03-08T03:08:25.922Z,0.67
2019-03-08T03:10:52.503Z,0.70
2019-03-08T03:13:19.187Z,0.70
2019-03-08T03:15:45.651Z,0.40
2019-03-08T03:18:12.715Z,1.13
2019-03-08T03:20:39.525Z,0.60
2019-03-08T03:23:05.908Z,0.50
2019-03-08T03:25:32.294Z,0.67
2019-03-08T03:27:58.783Z,0.67
2019-03-08T03:30:25.485Z,0.60
2019-03-08T03:32:51.870Z,0.70
2019-03-08T03:35:18.623Z,0.70
2019-03-08T03:37:45.401Z,0.47
2019-03-08T03:40:16.247Z,0.50
2019-03-08T03:42:43.702Z,0.60
2019-03-08T03:45:16.138Z,0.50
2019-03-08T03:47:42.801Z,0.97
2019-03-08T03:50:11.458Z,0.60
2019-03-08T03:52:39.130Z,0.50
2019-03-08T03:55:08.414Z,0.60
2019-03-08T03:57:34.918Z,0.70
2019-03-08T04:00:03.204Z,0.47
2019-03-08T04:02:30.080Z,0.83
2019-03-08T04:04:56.495Z,0.90
2019-03-08T04:07:22.850Z,0.73
2019-03-08T04:09:49.352Z,0.73
2019-03-08T04:12:15.859Z,0.57
2019-03-08T04:14:42.227Z,0.60
2019-03-08T04:17:08.739Z,0.63
2019-03-08T04:19:35.114Z,0.90
2019-03-08T04:22:01.510Z,0.50
2019-03-08T04:24:28.175Z,0.67
2019-03-08T04:26:54.670Z,0.57
2019-03-08T04:29:21.162Z,0.57
2019-03-08T04:31:47.886Z,0.63
2019-03-08T04:34:14.280Z,0.43
2019-03-08T04:36:40.641Z,0.67
2019-03-08T04:39:07.726Z,0.80
2019-03-08T04:41:34.118Z,0.50
2019-03-08T04:44:00.921Z,0.50
2019-03-08T04:46:27.287Z,0.60
2019-03-08T04:48:53.673Z,1.07
2019-03-08T04:51:20.402Z,0.93
2019-03-08T04:53:47.130Z,0.60
2019-03-08T04:56:13.499Z,0.50
2019-03-08T04:58:40.084Z,0.70
2019-03-08T05:01:06.488Z,0.50
2019-03-08T05:03:32.871Z,0.70
2019-03-08T05:06:00.793Z,0.53
2019-03-08T05:08:27.686Z,0.60
2019-03-08T05:10:54.701Z,0.40
2019-03-08T05:13:21.559Z,0.60
2019-03-08T05:15:48.018Z,0.57
2019-03-08T05:18:14.402Z,0.50
2019-03-08T05:20:40.899Z,0.60
2019-03-08T05:23:07.269Z,0.50
2019-03-08T05:25:33.654Z,0.50
2019-03-08T05:28:19.987Z,0.63
2019-03-08T05:30:46.383Z,0.70
2019-03-08T05:33:14.056Z,0.40
2019-03-08T05:35:40.755Z,0.60
2019-03-08T05:38:07.126Z,0.47
2019-03-08T05:40:33.593Z,0.90
2019-03-08T05:42:59.887Z,0.50
2019-03-08T05:45:26.273Z,0.90
2019-03-08T05:47:52.655Z,0.40
2019-03-08T05:50:19.039Z,0.60
2019-03-08T05:52:45.314Z,0.50
2019-03-08T05:55:12.017Z,0.60
2019-03-08T05:57:38.390Z,0.40
2019-03-08T06:00:10.581Z,0.50
2019-03-08T06:02:36.958Z,0.50
2019-03-08T06:05:04.934Z,0.53
2019-03-08T06:07:31.327Z,0.40
2019-03-08T06:09:57.719Z,0.27
2019-03-08T06:12:24.110Z,0.30
2019-03-08T06:14:50.483Z,0.40
2019-03-08T06:17:18.235Z,0.73
2019-03-08T06:19:44.599Z,0.30
2019-03-08T06:22:11.245Z,0.30
2019-03-08T06:24:37.924Z,0.30
2019-03-08T06:27:04.605Z,0.20
2019-03-08T06:29:31.073Z,0.30
2019-03-08T06:31:57.487Z,0.20
2019-03-08T06:34:23.847Z,0.20
2019-03-08T06:36:50.226Z,0.23
2019-03-08T06:39:16.594Z,0.27
2019-03-08T06:41:42.996Z,0.20
2019-03-08T06:44:09.386Z,0.30
2019-03-08T06:46:36.086Z,0.30
2019-03-08T06:49:02.462Z,0.30
2019-03-08T06:51:28.841Z,0.33
2019-03-08T06:53:55.455Z,0.30
2019-03-08T06:56:22.079Z,0.27
2019-03-08T06:58:50.346Z,0.40
2019-03-08T07:01:18.643Z,0.50
2019-03-08T07:03:45.111Z,0.70
2019-03-08T07:06:11.509Z,0.50
2019-03-08T07:08:38.226Z,0.50
2019-03-08T07:11:04.646Z,0.67
2019-03-08T07:13:31.142Z,0.80
2019-03-08T07:15:57.655Z,0.50
2019-03-08T07:18:24.395Z,0.80
2019-03-08T07:20:55.394Z,0.70
2019-03-08T07:23:27.803Z,0.77
2019-03-08T07:25:54.537Z,0.60
2019-03-08T07:28:41.128Z,0.80
2019-03-08T07:31:22.107Z,0.70
2019-03-08T07:33:53.399Z,1.10
2019-03-08T07:36:26.862Z,1.00
2019-03-08T07:39:11.973Z,1.30
2019-03-08T07:41:40.711Z,0.93
2019-03-08T07:44:12.234Z,0.90
2019-03-08T07:46:51.108Z,1.57
2019-03-08T07:49:22.447Z,1.57
2019-03-08T07:51:54.006Z,1.13
2019-03-08T07:54:22.371Z,1.33
2019-03-08T07:56:59.977Z,1.07
2019-03-08T07:59:31.325Z,0.80
2019-03-08T08:02:05.440Z,1.40
2019-03-08T08:04:33.747Z,1.10
2019-03-08T08:07:02.015Z,1.33
2019-03-08T08:09:30.564Z,1.03
2019-03-08T08:11:58.943Z,0.90
2019-03-08T08:14:39.756Z,1.20
2019-03-08T08:17:17.239Z,0.80
2019-03-08T08:19:45.526Z,0.90
2019-03-08T08:22:19.867Z,1.03
2019-03-08T08:24:51.026Z,1.10
2019-03-08T08:27:24.975Z,1.20
2019-03-08T08:30:08.706Z,1.10
2019-03-08T08:32:54.157Z,1.17
2019-03-08T08:35:39.066Z,1.00
2019-03-08T08:38:13.103Z,0.93
2019-03-08T08:40:44.575Z,1.27
2019-03-08T08:43:13.077Z,1.27
2019-03-08T08:45:41.371Z,1.10
2019-03-08T08:48:09.946Z,1.47
2019-03-08T08:50:56.862Z,1.40
2019-03-08T08:53:26.221Z,1.43
2019-03-08T08:56:06.808Z,1.53
2019-03-08T08:58:35.122Z,1.30
2019-03-08T09:01:06.400Z,1.30
2019-03-08T09:03:43.735Z,1.43
2019-03-08T09:06:14.998Z,1.53
2019-03-08T09:08:56.415Z,1.77
2019-03-08T09:11:25.054Z,2.10
2019-03-08T09:13:53.544Z,1.60
2019-03-08T09:16:31.004Z,1.40
2019-03-08T09:19:02.478Z,1.40
2019-03-08T09:21:48.879Z,1.60
2019-03-08T09:24:33.843Z,1.50
2019-03-08T09:27:05.099Z,1.60
2019-03-08T09:29:45.638Z,1.57
2019-03-08T09:32:13.914Z,1.33
2019-03-08T09:34:42.715Z,1.73
2019-03-08T09:37:17.230Z,1.70
2019-03-08T09:39:45.950Z,1.60
2019-03-08T09:42:30.831Z,1.63
2019-03-08T09:45:02.583Z,1.40
2019-03-08T09:47:33.956Z,1.70
2019-03-08T09:50:02.263Z,1.50
2019-03-08T09:52:33.658Z,1.43
2019-03-08T09:55:01.942Z,1.47
2019-03-08T09:57:43.030Z,1.93
2019-03-08T10:00:23.039Z,1.43
2019-03-08T10:02:56.951Z,1.53
2019-03-08T10:05:37.431Z,1.57
2019-03-08T10:08:08.418Z,1.53
2019-03-08T10:10:39.598Z,1.47
2019-03-08T10:13:14.035Z,1.80
2019-03-08T10:15:42.806Z,2.03
2019-03-08T10:18:23.063Z,1.93
2019-03-08T10:21:07.959Z,1.87
2019-03-08T10:23:53.621Z,1.57
2019-03-08T10:26:32.289Z,1.73
2019-03-08T10:29:09.575Z,2.13
2019-03-08T10:31:40.794Z,1.70
2019-03-08T10:34:11.875Z,2.33
2019-03-08T10:36:56.779Z,1.77
2019-03-08T10:39:28.259Z,2.10
2019-03-08T10:42:13.195Z,1.87
2019-03-08T10:44:41.465Z,1.47
2019-03-08T10:47:26.958Z,1.83
2019-03-08T10:50:04.312Z,2.33
2019-03-08T10:52:35.630Z,2.73
2019-03-08T10:55:11.424Z,2.00
2019-03-08T10:57:48.771Z,2.63
2019-03-08T11:00:20.292Z,2.10
2019-03-08T11:03:05.658Z,2.67
2019-03-08T11:05:42.719Z,2.37
2019-03-08T11:08:30.059Z,2.13
2019-03-08T11:11:06.398Z,2.00
2019-03-08T11:13:42.821Z,2.63
2019-03-08T11:16:10.866Z,2.50
2019-03-08T11:18:56.119Z,2.47
2019-03-08T11:21:33.560Z,2.60
2019-03-08T11:24:07.959Z,1.87
2019-03-08T11:26:36.535Z,2.60
2019-03-08T11:29:14.133Z,2.13
2019-03-08T11:31:42.511Z,2.63
2019-03-08T11:34:10.806Z,2.50
2019-03-08T11:36:42.137Z,2.33
2019-03-08T11:39:19.512Z,2.57
2019-03-08T11:42:05.131Z,1.80
2019-03-08T11:44:39.843Z,1.70
2019-03-08T11:47:23.616Z,1.80
2019-03-08T11:49:57.755Z,1.50
2019-03-08T11:52:42.651Z,1.83
2019-03-08T11:55:23.835Z,1.33
2019-03-08T11:58:09.220Z,1.27
2019-03-08T12:00:47.130Z,1.57
2019-03-08T12:03:15.589Z,1.30
2019-03-08T12:05:53.094Z,1.13
2019-03-08T12:08:21.475Z,1.43
2019-03-08T12:11:24.703Z,1.20
2019-03-08T12:14:02.010Z,1.43
2019-03-08T12:16:33.126Z,1.40
2019-03-08T12:19:04.462Z,1.33
2019-03-08T12:21:49.407Z,1.07
2019-03-08T12:24:17.813Z,1.20
2019-03-08T12:26:46.290Z,0.90
2019-03-08T12:29:14.669Z,1.20
2019-03-08T12:31:51.933Z,0.97
2019-03-08T12:34:23.095Z,0.90
2019-03-08T12:36:51.390Z,1.07
2019-03-08T12:39:38.019Z,1.10
2019-03-08T12:42:12.129Z,1.30
2019-03-08T12:44:40.438Z,1.30
2019-03-08T12:47:08.813Z,1.23
2019-03-08T12:49:40.043Z,1.30
2019-03-08T12:52:08.329Z,1.70
2019-03-08T12:54:36.614Z,1.53
2019-03-08T12:57:05.252Z,1.20
2019-03-08T12:59:33.537Z,1.40
2019-03-08T13:02:03.107Z,1.40
2019-03-08T13:04:48.282Z,1.30
2019-03-08T13:07:16.574Z,1.20
2019-03-08T13:09:49.022Z,1.33
2019-03-08T13:12:15.624Z,1.50
2019-03-08T13:14:42.091Z,1.20
2019-03-08T13:17:08.593Z,1.00
2019-03-08T13:19:35.198Z,1.20
2019-03-08T13:22:01.742Z,1.20
2019-03-08T13:24:28.097Z,1.20
2019-03-08T13:26:54.785Z,1.30
2019-03-08T13:29:21.527Z,1.40
2019-03-08T13:31:47.950Z,1.27
2019-03-08T13:34:14.622Z,1.80
2019-03-08T13:36:41.096Z,1.33
2019-03-08T13:39:07.775Z,1.73
2019-03-08T13:41:35.543Z,1.13
2019-03-08T13:44:02.135Z,1.40
2019-03-08T13:46:28.510Z,1.43
2019-03-08T13:48:54.902Z,1.40
2019-03-08T13:51:21.311Z,1.40
2019-03-08T13:53:47.709Z,1.50
2019-03-08T13:56:14.083Z,1.40
2019-03-08T13:58:40.579Z,1.27
2019-03-08T14:01:06.943Z,1.30
2019-03-08T14:03:33.645Z,1.37
2019-03-08T14:06:00.015Z,1.53
2019-03-08T14:08:26.463Z,1.60
2019-03-08T14:10:52.849Z,1.50
2019-03-08T14:13:19.782Z,1.47
2019-03-08T14:15:46.523Z,1.77
2019-03-08T14:18:12.891Z,1.30
2019-03-08T14:20:40.226Z,2.10
2019-03-08T14:23:07.050Z,1.70
2019-03-08T14:25:33.440Z,1.63
2019-03-08T14:27:59.822Z,1.63
2019-03-08T14:30:32.155Z,1.40
2019-03-08T14:32:57.861Z,1.30
2019-03-08T14:35:29.275Z,1.73
2019-03-08T14:37:56.059Z,1.10
2019-03-08T14:40:33.316Z,1.30
2019-03-08T14:43:05.589Z,1.10
2019-03-08T14:45:40.404Z,1.63
2019-03-08T14:48:09.600Z,1.40
2019-03-08T14:50:37.030Z,1.20
2019-03-08T14:53:03.559Z,1.07
2019-03-08T14:55:30.731Z,1.20
2019-03-08T14:57:58.973Z,1.00
2019-03-08T15:00:29.048Z,0.90
2019-03-08T15:02:54.877Z,0.90
2019-03-08T15:05:21.370Z,1.10
2019-03-08T15:07:47.966Z,0.87
2019-03-08T15:10:22.852Z,1.00
2019-03-08T15:12:49.597Z,0.90
2019-03-08T15:15:16.299Z,0.90
2019-03-08T15:17:43.571Z,0.80
2019-03-08T15:20:15.569Z,1.13
2019-03-08T15:22:43.012Z,0.87
2019-03-08T15:25:12.583Z,0.80
2019-03-08T15:27:38.898Z,0.83
2019-03-08T15:30:11.212Z,0.90
2019-03-08T15:32:37.898Z,0.63
2019-03-08T15:35:06.663Z,0.70
2019-03-08T15:37:33.155Z,0.80
2019-03-08T15:40:01.030Z,1.13
2019-03-08T15:42:27.516Z,0.80
2019-03-08T15:44:54.106Z,0.70
2019-03-08T15:47:23.873Z,0.60
2019-03-08T15:49:49.322Z,0.50
2019-03-08T15:52:16.309Z,0.80
2019-03-08T15:54:42.628Z,0.67
2019-03-08T15:57:09.388Z,0.63
2019-03-08T15:59:35.758Z,0.77
2019-03-08T16:02:06.306Z,0.83
2019-03-08T16:04:31.514Z,1.10
2019-03-08T16:06:57.794Z,0.97
2019-03-08T16:09:24.183Z,1.20
2019-03-08T16:11:50.784Z,1.97
2019-03-08T16:14:17.614Z,1.70
2019-03-08T16:16:43.979Z,1.73
2019-03-08T16:19:10.751Z,1.10
2019-03-08T16:21:37.123Z,1.50
2019-03-08T16:24:03.967Z,1.67
2019-03-08T16:26:30.255Z,1.63
2019-03-08T16:28:56.736Z,1.10
2019-03-08T16:31:25.612Z,1.07
2019-03-08T16:33:55.273Z,0.87
2019-03-08T16:36:38.622Z,1.00
2019-03-08T16:39:16.215Z,0.73
2019-03-08T16:41:47.772Z,0.60
2019-03-08T16:44:32.374Z,0.90
2019-03-08T16:47:12.359Z,1.00
2019-03-08T16:49:51.744Z,0.87
2019-03-08T16:52:19.204Z,0.77
2019-03-08T16:54:59.992Z,0.80
2019-03-08T16:57:34.522Z,1.00
2019-03-08T17:00:02.848Z,0.80
2019-03-08T17:02:49.018Z,0.70
2019-03-08T17:05:34.202Z,0.70
2019-03-08T17:08:02.370Z,1.00
2019-03-08T17:10:31.864Z,0.93
2019-03-08T17:13:00.143Z,0.80
2019-03-08T17:15:28.549Z,0.80
2019-03-08T17:17:59.871Z,0.90
2019-03-08T17:20:37.114Z,0.90
2019-03-08T17:23:11.402Z,0.90
2019-03-08T17:25:39.619Z,0.70
2019-03-08T17:28:16.966Z,0.70
2019-03-08T17:30:48.519Z,0.90
2019-03-08T17:33:25.627Z,0.77
2019-03-08T17:35:53.827Z,1.07
2019-03-08T17:38:22.539Z,0.90
2019-03-08T17:40:50.930Z,0.87
2019-03-08T17:43:19.423Z,0.73
2019-03-08T17:45:56.795Z,0.90
2019-03-08T17:48:30.836Z,1.10
2019-03-08T17:51:15.769Z,0.60
2019-03-08T17:53:53.070Z,0.90
2019-03-08T17:56:21.411Z,0.70
2019-03-08T17:58:50.020Z,0.40
2019-03-08T18:01:34.043Z,0.70
2019-03-08T18:04:05.026Z,0.60
2019-03-08T18:06:52.143Z,1.27
2019-03-08T18:09:20.620Z,0.50
2019-03-08T18:11:52.182Z,0.50
2019-03-08T18:14:24.123Z,0.50
2019-03-08T18:16:52.429Z,0.50
2019-03-08T18:19:29.432Z,0.50
2019-03-08T18:22:00.568Z,0.50
2019-03-08T18:24:28.838Z,0.47
2019-03-08T18:26:57.502Z,0.40
2019-03-08T18:29:28.622Z,0.40
2019-03-08T18:32:02.978Z,0.50
2019-03-08T18:34:40.399Z,0.40
2019-03-08T18:37:20.901Z,0.40
2019-03-08T18:39:49.197Z,0.50
2019-03-08T18:42:35.654Z,0.40
2019-03-08T18:45:23.868Z,0.50
2019-03-08T18:48:08.783Z,0.40
2019-03-08T18:50:55.291Z,0.43
2019-03-08T18:53:23.502Z,0.50
2019-03-08T18:55:55.024Z,0.40
2019-03-08T18:58:40.623Z,0.50
2019-03-08T19:01:21.434Z,0.37
2019-03-08T19:04:02.114Z,0.50
2019-03-08T19:06:30.714Z,0.60
2019-03-08T19:09:17.642Z,0.60
2019-03-08T19:11:51.935Z,0.60
2019-03-08T19:14:20.566Z,0.87
2019-03-08T19:16:52.023Z,0.57
2019-03-08T19:19:20.423Z,1.00
2019-03-08T19:21:54.862Z,0.73
2019-03-08T19:24:23.159Z,1.10
2019-03-08T19:26:54.527Z,0.70
2019-03-08T19:29:26.279Z,0.60
2019-03-08T19:32:09.931Z,0.67
2019-03-08T19:34:44.015Z,0.70
2019-03-08T19:37:12.387Z,0.60
2019-03-08T19:39:57.582Z,0.60
2019-03-08T19:42:38.455Z,0.53
2019-03-08T19:45:12.603Z,0.77
2019-03-08T19:47:46.878Z,0.53
2019-03-08T19:50:31.991Z,0.70
2019-03-08T19:53:00.668Z,0.67
2019-03-08T19:55:40.922Z,0.70
2019-03-08T19:58:09.510Z,0.70
2019-03-08T20:00:37.825Z,0.77
2019-03-08T20:03:08.967Z,1.70
2019-03-08T20:05:37.606Z,1.40
2019-03-08T20:08:22.711Z,1.47
2019-03-08T20:11:07.933Z,1.60
2019-03-08T20:13:49.656Z,1.13
2019-03-08T20:16:24.358Z,1.37
2019-03-08T20:18:59.086Z,1.67
2019-03-08T20:21:27.491Z,1.37
2019-03-08T20:23:55.867Z,1.17
2019-03-08T20:26:24.528Z,1.20
2019-03-08T20:28:56.182Z,1.20
2019-03-08T20:31:36.871Z,1.30
2019-03-08T20:34:05.544Z,1.10
2019-03-08T20:36:39.920Z,1.20
2019-03-08T20:39:08.707Z,1.20
2019-03-08T20:41:52.755Z,1.00
2019-03-08T20:44:24.959Z,1.17
2019-03-08T20:46:53.262Z,1.70
2019-03-08T20:49:19.666Z,1.17
2019-03-08T20:51:46.506Z,1.20
2019-03-08T20:54:12.986Z,1.20
2019-03-08T20:56:39.687Z,1.37
2019-03-08T20:59:06.390Z,1.30
2019-03-08T21:01:33.067Z,1.57
2019-03-08T21:04:00.778Z,1.17
2019-03-08T21:06:27.154Z,1.83
2019-03-08T21:08:54.003Z,1.20
2019-03-08T21:11:20.374Z,1.40
2019-03-08T21:13:46.824Z,1.30
2019-03-08T21:16:13.412Z,1.33
2019-03-08T21:18:39.807Z,1.23
2019-03-08T21:21:06.474Z,1.30
2019-03-08T21:23:32.771Z,1.50
2019-03-08T21:25:59.339Z,1.60
2019-03-08T21:28:25.836Z,1.13
2019-03-08T21:30:52.599Z,1.63
2019-03-08T21:33:18.990Z,1.57
2019-03-08T21:35:45.476Z,1.40
2019-03-08T21:38:11.952Z,1.40
2019-03-08T21:40:38.363Z,1.80
2019-03-08T21:43:05.098Z,1.63
2019-03-08T21:45:31.835Z,1.30
2019-03-08T21:47:58.516Z,1.50
2019-03-08T21:50:25.006Z,1.70
2019-03-08T21:52:51.374Z,1.60
2019-03-08T21:55:17.870Z,1.63
2019-03-08T21:57:44.242Z,2.30
2019-03-08T22:00:16.054Z,1.97
2019-03-08T22:02:43.036Z,1.80
2019-03-08T22:05:09.772Z,1.77
2019-03-08T22:07:36.142Z,1.73
2019-03-08T22:10:10.196Z,2.00
2019-03-08T22:12:36.666Z,2.00
2019-03-08T22:15:04.756Z,1.70
2019-03-08T22:17:31.237Z,1.67
2019-03-08T22:19:57.636Z,1.90
2019-03-08T22:22:24.002Z,1.57
2019-03-08T22:24:50.504Z,1.70
2019-03-08T22:27:16.870Z,1.40
2019-03-08T22:29:43.162Z,2.07
2019-03-08T22:32:10.051Z,1.53
2019-03-08T22:34:36.435Z,1.97
2019-03-08T22:37:02.957Z,1.50
2019-03-08T22:39:29.340Z,1.60
2019-03-08T22:41:55.725Z,1.77
2019-03-08T22:44:22.090Z,1.33
2019-03-08T22:46:48.775Z,1.43
2019-03-08T22:49:15.225Z,1.40
2019-03-08T22:51:41.524Z,1.57
2019-03-08T22:54:08.268Z,1.07
2019-03-08T22:56:34.989Z,1.13
2019-03-08T22:59:01.646Z,1.37
2019-03-08T23:01:39.735Z,1.23
2019-03-08T23:04:07.303Z,1.27
2019-03-08T23:06:33.771Z,1.20
2019-03-08T23:09:00.175Z,1.40
2019-03-08T23:11:28.346Z,1.13
2019-03-08T23:13:55.737Z,1.40
2019-03-08T23:16:22.495Z,1.43
2019-03-08T23:18:49.040Z,1.40
2019-03-08T23:21:15.498Z,1.50
2019-03-08T23:23:41.827Z,1.70
2019-03-08T23:26:08.300Z,1.10
2019-03-08T23:28:36.594Z,1.20
2019-03-08T23:31:10.518Z,1.60
2019-03-08T23:33:36.814Z,1.70
2019-03-08T23:36:03.303Z,1.40
2019-03-08T23:38:29.705Z,1.77
2019-03-08T23:40:56.103Z,1.27
2019-03-08T23:43:22.626Z,2.03
2019-03-08T23:45:49.349Z,1.00
2019-03-08T23:48:15.714Z,0.97
2019-03-08T23:50:42.123Z,1.30
2019-03-08T23:53:08.762Z,1.10
2019-03-08T23:55:35.151Z,1.27
2019-03-08T23:58:01.526Z,1.50
